createdAt,value
2023-05-19T00:00:05.377Z,0.90
2023-05-19T00:01:05.440Z,0.94
2023-05-19T00:02:05.535Z,0.90
2023-05-19T00:03:05.630Z,0.92
2023-05-19T00:04:05.551Z,0.90
2023-05-19T00:05:05.591Z,0.90
2023-05-19T00:06:05.651Z,0.90
2023-05-19T00:07:05.778Z,0.92
2023-05-19T00:08:05.761Z,0.87
2023-05-19T00:09:05.835Z,0.89
2023-05-19T00:10:05.866Z,0.88
2023-05-19T00:11:05.892Z,0.89
2023-05-19T00:12:05.950Z,0.89
2023-05-19T00:13:06.006Z,0.91
2023-05-19T00:14:06.038Z,0.90
2023-05-19T00:15:06.071Z,0.91
2023-05-19T00:16:06.198Z,0.91
2023-05-19T00:17:06.218Z,0.95
2023-05-19T00:18:06.298Z,0.93
2023-05-19T00:19:06.419Z,0.96
2023-05-19T00:20:06.361Z,0.96
2023-05-19T00:21:06.402Z,0.94
2023-05-19T00:22:06.425Z,0.93
2023-05-19T00:23:06.522Z,0.95
2023-05-19T00:24:06.547Z,0.97
2023-05-19T00:25:06.577Z,0.97
2023-05-19T00:26:06.645Z,0.94
2023-05-19T00:27:06.656Z,0.92
2023-05-19T00:28:06.715Z,0.91
2023-05-19T00:29:06.840Z,0.94
2023-05-19T00:30:06.866Z,0.97
2023-05-19T00:31:06.863Z,1.02
2023-05-19T00:32:07.015Z,1.00
2023-05-19T00:33:07.050Z,1.00
2023-05-19T00:34:07.013Z,1.02
2023-05-19T00:35:07.091Z,1.02
2023-05-19T00:36:07.156Z,1.01
2023-05-19T00:37:07.190Z,1.01
2023-05-19T00:38:07.249Z,1.02
2023-05-19T00:39:07.277Z,1.02
2023-05-19T00:40:07.373Z,1.01
2023-05-19T00:41:07.390Z,1.03
2023-05-19T00:42:07.428Z,1.02
2023-05-19T00:43:07.455Z,1.05
2023-05-19T00:44:07.479Z,1.04
2023-05-19T00:45:07.550Z,1.06
2023-05-19T00:46:07.787Z,1.07
2023-05-19T00:47:07.694Z,1.06
2023-05-19T00:48:07.787Z,1.07
2023-05-19T00:49:07.740Z,1.10
2023-05-19T00:50:07.785Z,1.08
2023-05-19T00:51:07.860Z,1.06
2023-05-19T00:52:07.921Z,1.06
2023-05-19T00:53:07.941Z,1.05
2023-05-19T00:54:07.986Z,1.02
2023-05-19T00:55:08.094Z,1.02
2023-05-19T00:56:08.150Z,1.06
2023-05-19T00:57:08.154Z,1.03
2023-05-19T00:58:08.206Z,1.02
2023-05-19T00:59:08.280Z,1.03
2023-05-19T01:00:08.384Z,1.05
2023-05-19T01:01:08.485Z,1.09
2023-05-19T01:02:08.408Z,1.07
2023-05-19T01:03:08.566Z,1.09
2023-05-19T01:04:08.669Z,1.07
2023-05-19T01:05:08.606Z,1.05
2023-05-19T01:06:08.657Z,1.02
2023-05-19T01:07:08.701Z,1.06
2023-05-19T01:08:08.787Z,1.03
2023-05-19T01:09:08.779Z,1.02
2023-05-19T01:10:08.837Z,1.06
2023-05-19T01:11:08.962Z,1.08
2023-05-19T01:12:08.996Z,1.07
2023-05-19T01:13:09.038Z,1.02
2023-05-19T01:14:09.167Z,1.08
2023-05-19T01:15:09.201Z,1.08
2023-05-19T01:16:09.245Z,1.08
2023-05-19T01:17:09.286Z,1.08
2023-05-19T01:18:09.367Z,1.06
2023-05-19T01:19:09.412Z,1.07
2023-05-19T01:20:09.472Z,1.08
2023-05-19T01:21:09.517Z,1.05
2023-05-19T01:22:09.541Z,1.06
2023-05-19T01:23:09.595Z,1.05
2023-05-19T01:24:09.663Z,1.08
2023-05-19T01:25:09.735Z,1.06
2023-05-19T01:26:09.782Z,1.07
2023-05-19T01:27:09.818Z,1.09
2023-05-19T01:28:09.896Z,1.11
2023-05-19T01:29:09.949Z,1.14
2023-05-19T01:30:09.983Z,1.15
2023-05-19T01:31:10.070Z,1.12
2023-05-19T01:32:10.208Z,1.14
2023-05-19T01:33:10.189Z,1.16
2023-05-19T01:34:10.222Z,1.18
2023-05-19T01:35:10.319Z,1.19
2023-05-19T01:36:10.308Z,1.21
2023-05-19T01:37:10.392Z,1.26
2023-05-19T01:38:10.404Z,1.26
2023-05-19T01:39:10.455Z,1.30
2023-05-19T01:40:10.521Z,1.34
2023-05-19T01:41:10.558Z,1.33
2023-05-19T01:42:10.641Z,1.37
2023-05-19T01:43:10.695Z,1.39
2023-05-19T01:44:10.843Z,1.37
2023-05-19T01:45:10.813Z,1.38
2023-05-19T01:46:10.946Z,1.40
2023-05-19T01:47:10.943Z,1.44
2023-05-19T01:48:11.380Z,1.50
2023-05-19T01:49:11.039Z,1.60
2023-05-19T01:50:11.133Z,1.54
2023-05-19T01:51:11.141Z,1.58
2023-05-19T01:52:11.197Z,1.62
2023-05-19T01:53:11.260Z,1.66
2023-05-19T01:54:11.291Z,1.69
2023-05-19T01:55:11.407Z,1.72
2023-05-19T01:56:11.416Z,1.79
2023-05-19T01:57:11.469Z,1.80
2023-05-19T01:58:11.547Z,1.84
2023-05-19T01:59:11.584Z,1.86
2023-05-19T02:00:11.629Z,1.92
2023-05-19T02:01:11.734Z,1.90
2023-05-19T02:02:11.727Z,1.96
2023-05-19T02:03:11.769Z,1.92
2023-05-19T02:04:11.833Z,1.89
2023-05-19T02:05:11.842Z,1.93
2023-05-19T02:06:11.912Z,1.91
2023-05-19T02:07:11.925Z,1.84
2023-05-19T02:08:11.977Z,1.89
2023-05-19T02:09:12.025Z,1.89
2023-05-19T02:10:12.101Z,1.95
2023-05-19T02:11:12.117Z,2.01
2023-05-19T02:12:12.144Z,2.05
2023-05-19T02:13:12.207Z,2.14
2023-05-19T02:14:12.242Z,2.23
2023-05-19T02:15:12.285Z,2.23
2023-05-19T02:16:12.362Z,2.30
2023-05-19T02:17:12.348Z,2.31
2023-05-19T02:18:12.416Z,2.39
2023-05-19T02:19:12.477Z,2.39
2023-05-19T02:20:12.481Z,2.37
2023-05-19T02:21:12.537Z,2.36
2023-05-19T02:22:12.539Z,2.38
2023-05-19T02:23:12.623Z,2.32
2023-05-19T02:24:12.615Z,2.33
2023-05-19T02:25:12.707Z,2.32
2023-05-19T02:26:12.701Z,2.41
2023-05-19T02:27:12.758Z,2.44
2023-05-19T02:28:12.784Z,2.46
2023-05-19T02:29:12.912Z,2.42
2023-05-19T02:30:12.928Z,2.45
2023-05-19T02:31:12.943Z,2.50
2023-05-19T02:32:13.004Z,2.49
2023-05-19T02:33:13.026Z,2.53
2023-05-19T02:34:12.967Z,2.56
2023-05-19T02:35:13.016Z,2.64
2023-05-19T02:36:13.016Z,2.65
2023-05-19T02:37:12.984Z,2.70
2023-05-19T02:38:13.016Z,2.71
2023-05-19T02:39:13.064Z,2.58
2023-05-19T02:40:13.136Z,2.58
2023-05-19T02:41:13.125Z,2.52
2023-05-19T02:42:13.169Z,2.54
2023-05-19T02:43:13.205Z,2.53
2023-05-19T02:44:13.248Z,2.63
2023-05-19T02:45:13.290Z,2.64
2023-05-19T02:46:13.334Z,2.57
2023-05-19T02:47:13.350Z,2.60
2023-05-19T02:48:13.415Z,2.65
2023-05-19T02:49:13.444Z,2.60
2023-05-19T02:50:13.477Z,2.66
2023-05-19T02:51:13.518Z,2.68
2023-05-19T02:52:13.535Z,2.67
2023-05-19T02:53:13.558Z,2.68
2023-05-19T02:54:13.590Z,2.72
2023-05-19T02:55:13.593Z,2.66
2023-05-19T02:56:13.661Z,2.59
2023-05-19T02:57:13.669Z,2.62
2023-05-19T02:58:13.691Z,2.58
2023-05-19T02:59:13.724Z,2.54
2023-05-19T03:00:13.769Z,2.58
2023-05-19T03:01:13.786Z,2.52
2023-05-19T03:02:13.873Z,2.53
2023-05-19T03:03:13.903Z,2.57
2023-05-19T03:04:13.852Z,2.64
2023-05-19T03:05:13.894Z,2.60
2023-05-19T03:06:13.914Z,2.56
2023-05-19T03:07:13.961Z,2.53
2023-05-19T03:08:13.957Z,2.55
2023-05-19T03:09:14.002Z,2.50
2023-05-19T03:10:14.067Z,2.48
2023-05-19T03:11:14.035Z,2.53
2023-05-19T03:12:14.077Z,2.53
2023-05-19T03:13:14.112Z,2.54
2023-05-19T03:14:14.134Z,2.49
2023-05-19T03:15:14.242Z,2.44
2023-05-19T03:16:14.278Z,2.40
2023-05-19T03:17:14.259Z,2.40
2023-05-19T03:18:14.282Z,2.40
2023-05-19T03:19:14.303Z,2.47
2023-05-19T03:20:14.316Z,2.46
2023-05-19T03:21:14.309Z,2.43
2023-05-19T03:22:14.338Z,2.49
2023-05-19T03:23:14.343Z,2.52
2023-05-19T03:24:14.369Z,2.54
2023-05-19T03:25:14.424Z,2.57
2023-05-19T03:26:14.446Z,2.55
2023-05-19T03:27:14.504Z,2.51
2023-05-19T03:28:14.517Z,2.49
2023-05-19T03:29:14.537Z,2.50
2023-05-19T03:30:14.543Z,2.53
2023-05-19T03:31:14.569Z,2.63
2023-05-19T03:32:14.633Z,2.59
2023-05-19T03:33:14.743Z,2.62
2023-05-19T03:34:14.616Z,2.64
2023-05-19T03:35:14.672Z,2.63
2023-05-19T03:36:14.709Z,2.62
2023-05-19T03:37:14.695Z,2.55
2023-05-19T03:38:14.725Z,2.51
2023-05-19T03:39:14.736Z,2.52
2023-05-19T03:40:14.743Z,2.57
2023-05-19T03:41:14.766Z,2.51
2023-05-19T03:42:14.818Z,2.58
2023-05-19T03:43:14.818Z,2.64
2023-05-19T03:44:14.840Z,2.66
2023-05-19T03:45:14.848Z,2.60
2023-05-19T03:46:14.981Z,2.58
2023-05-19T03:47:14.914Z,2.55
2023-05-19T03:48:14.947Z,2.60
2023-05-19T03:49:14.959Z,2.59
2023-05-19T03:50:15.010Z,2.64
2023-05-19T03:51:15.008Z,2.60
2023-05-19T03:52:15.014Z,2.63
2023-05-19T03:53:15.027Z,2.65
2023-05-19T03:54:15.037Z,2.65
2023-05-19T03:55:15.080Z,2.58
2023-05-19T03:56:15.062Z,2.70
2023-05-19T03:57:15.098Z,2.71
2023-05-19T03:58:15.070Z,2.70
2023-05-19T03:59:15.103Z,2.67
2023-05-19T04:00:15.104Z,2.68
2023-05-19T04:01:15.098Z,2.67
2023-05-19T04:02:16.496Z,2.68
2023-05-19T04:03:15.230Z,2.65
2023-05-19T04:04:15.141Z,2.57
2023-05-19T04:05:15.091Z,2.54
2023-05-19T04:06:15.137Z,2.51
2023-05-19T04:07:15.160Z,2.55
2023-05-19T04:08:15.168Z,2.59
2023-05-19T04:09:15.150Z,2.57
2023-05-19T04:10:15.199Z,2.67
2023-05-19T04:11:15.192Z,2.66
2023-05-19T04:12:15.212Z,2.76
2023-05-19T04:13:15.257Z,2.79
2023-05-19T04:14:15.220Z,2.77
2023-05-19T04:15:15.236Z,2.82
2023-05-19T04:16:15.242Z,2.78
2023-05-19T04:17:15.265Z,2.79
2023-05-19T04:18:15.299Z,2.78
2023-05-19T04:19:15.329Z,2.76
2023-05-19T04:20:15.289Z,2.83
2023-05-19T04:21:15.325Z,2.85
2023-05-19T04:22:15.349Z,2.78
2023-05-19T04:23:15.379Z,2.87
2023-05-19T04:24:15.365Z,2.80
2023-05-19T04:25:15.410Z,2.87
2023-05-19T04:26:15.430Z,2.86
2023-05-19T04:27:15.431Z,2.83
2023-05-19T04:28:15.411Z,2.82
2023-05-19T04:29:15.449Z,2.82
2023-05-19T04:30:18.334Z,2.87
2023-05-19T04:31:15.469Z,2.90
2023-05-19T04:32:15.393Z,2.92
2023-05-19T04:33:15.408Z,2.91
2023-05-19T04:34:15.397Z,2.91
2023-05-19T04:35:15.365Z,3.00
2023-05-19T04:36:15.373Z,3.00
2023-05-19T04:37:15.319Z,2.90
2023-05-19T04:38:15.319Z,2.93
2023-05-19T04:39:15.289Z,2.87
2023-05-19T04:40:15.285Z,2.74
2023-05-19T04:41:15.269Z,2.73
2023-05-19T04:42:15.264Z,2.81
2023-05-19T04:43:15.248Z,2.90
2023-05-19T04:44:15.227Z,2.92
2023-05-19T04:45:15.178Z,2.81
2023-05-19T04:46:15.240Z,2.84
2023-05-19T04:47:15.156Z,2.85
2023-05-19T04:48:15.151Z,2.70
2023-05-19T04:49:15.167Z,2.71
2023-05-19T04:50:15.161Z,2.78
2023-05-19T04:51:15.143Z,2.90
2023-05-19T04:52:15.107Z,2.82
2023-05-19T04:53:15.109Z,2.60
2023-05-19T04:54:15.088Z,2.51
2023-05-19T04:55:15.063Z,2.48
2023-05-19T04:56:15.146Z,2.55
2023-05-19T04:57:15.084Z,2.63
2023-05-19T04:58:15.029Z,2.60
2023-05-19T04:59:15.006Z,2.73
2023-05-19T05:00:15.020Z,2.78
2023-05-19T05:01:22.615Z,2.74
2023-05-19T05:02:15.021Z,2.74
2023-05-19T05:03:15.131Z,2.75
2023-05-19T05:04:15.012Z,2.76
2023-05-19T05:05:14.963Z,2.75
2023-05-19T05:06:14.993Z,2.74
2023-05-19T05:07:14.972Z,2.67
2023-05-19T05:08:14.955Z,2.50
2023-05-19T05:09:14.918Z,2.43
2023-05-19T05:10:15.001Z,2.53
2023-05-19T05:11:14.892Z,2.58
2023-05-19T05:12:14.874Z,2.58
2023-05-19T05:13:14.878Z,2.60
2023-05-19T05:14:14.858Z,2.68
2023-05-19T05:15:14.834Z,2.50
2023-05-19T05:16:14.857Z,2.57
2023-05-19T05:17:14.814Z,2.40
2023-05-19T05:18:14.768Z,2.18
2023-05-19T05:19:14.819Z,2.17
2023-05-19T05:20:14.749Z,2.20
2023-05-19T05:21:14.771Z,2.13
2023-05-19T05:22:14.738Z,2.10
2023-05-19T05:23:14.731Z,2.10
2023-05-19T05:24:14.684Z,2.16
2023-05-19T05:25:14.722Z,2.14
2023-05-19T05:26:14.803Z,2.19
2023-05-19T05:27:14.768Z,2.14
2023-05-19T05:28:14.791Z,2.10
2023-05-19T05:29:14.776Z,2.07
2023-05-19T05:30:14.790Z,1.94
2023-05-19T05:31:14.803Z,1.96
2023-05-19T05:32:14.852Z,1.89
2023-05-19T05:33:15.039Z,1.93
2023-05-19T05:34:14.872Z,1.96
2023-05-19T05:35:14.912Z,1.98
2023-05-19T05:36:14.923Z,2.01
2023-05-19T05:37:15.413Z,1.97
2023-05-19T05:38:14.935Z,1.96
2023-05-19T05:39:14.992Z,1.92
2023-05-19T05:40:15.014Z,1.89
2023-05-19T05:41:14.991Z,1.85
2023-05-19T05:42:15.015Z,1.86
2023-05-19T05:43:15.056Z,1.92
2023-05-19T05:44:15.070Z,1.90
2023-05-19T05:45:15.062Z,1.93
2023-05-19T05:46:23.026Z,1.92
2023-05-19T05:47:15.113Z,1.92
2023-05-19T05:48:15.059Z,1.93
2023-05-19T05:49:15.020Z,1.95
2023-05-19T05:50:15.035Z,1.99
2023-05-19T05:51:14.983Z,1.98
2023-05-19T05:52:14.990Z,2.03
2023-05-19T05:53:14.972Z,2.06
2023-05-19T05:54:14.955Z,2.06
2023-05-19T05:55:14.928Z,2.05
2023-05-19T05:56:14.966Z,2.07
2023-05-19T05:57:14.971Z,2.05
2023-05-19T05:58:14.914Z,2.09
2023-05-19T05:59:14.902Z,2.06
2023-05-19T06:00:14.842Z,2.05
2023-05-19T06:01:14.894Z,2.13
2023-05-19T06:02:14.917Z,2.19
2023-05-19T06:03:15.015Z,2.34
2023-05-19T06:04:14.929Z,2.45
2023-05-19T06:05:14.966Z,2.50
2023-05-19T06:06:14.939Z,2.48
2023-05-19T06:07:14.953Z,2.45
2023-05-19T06:08:14.962Z,2.46
2023-05-19T06:09:14.957Z,2.46
2023-05-19T06:10:14.990Z,2.47
2023-05-19T06:11:14.984Z,2.50
2023-05-19T06:12:15.009Z,2.58
2023-05-19T06:13:14.968Z,2.63
2023-05-19T06:14:15.020Z,2.68
2023-05-19T06:15:14.999Z,2.66
2023-05-19T06:16:15.118Z,2.72
2023-05-19T06:17:15.061Z,2.69
2023-05-19T06:18:15.106Z,2.59
2023-05-19T06:19:15.167Z,2.64
2023-05-19T06:20:15.065Z,2.62
2023-05-19T06:21:15.089Z,2.65
2023-05-19T06:22:15.064Z,2.59
2023-05-19T06:23:15.096Z,2.58
2023-05-19T06:24:15.084Z,2.72
2023-05-19T06:25:15.138Z,2.72
2023-05-19T06:26:15.170Z,2.77
2023-05-19T06:27:15.149Z,2.71
2023-05-19T06:28:15.190Z,2.73
2023-05-19T06:29:15.199Z,2.78
2023-05-19T06:30:15.190Z,2.73
2023-05-19T06:31:15.264Z,2.79
2023-05-19T06:32:15.218Z,2.73
2023-05-19T06:33:15.235Z,2.73
2023-05-19T06:34:15.262Z,2.73
2023-05-19T06:35:15.281Z,2.73
2023-05-19T06:36:15.281Z,2.61
2023-05-19T06:37:15.281Z,2.62
2023-05-19T06:38:15.291Z,2.59
2023-05-19T06:39:15.273Z,2.41
2023-05-19T06:40:15.322Z,2.10
2023-05-19T06:41:15.325Z,2.08
2023-05-19T06:42:15.327Z,1.93
2023-05-19T06:43:15.322Z,1.83
2023-05-19T06:44:15.339Z,1.77
2023-05-19T06:45:15.329Z,1.75
2023-05-19T06:46:15.398Z,1.74
2023-05-19T06:47:15.456Z,1.80
2023-05-19T06:48:15.429Z,1.89
2023-05-19T06:49:15.364Z,2.03
2023-05-19T06:50:15.391Z,2.11
2023-05-19T06:51:15.409Z,2.14
2023-05-19T06:52:15.412Z,2.12
2023-05-19T06:53:15.440Z,2.16
2023-05-19T06:54:15.437Z,2.21
2023-05-19T06:55:15.430Z,2.12
2023-05-19T06:56:15.450Z,2.10
2023-05-19T06:57:15.492Z,2.12
2023-05-19T06:58:15.468Z,2.16
2023-05-19T06:59:15.493Z,2.13
2023-05-19T07:00:18.719Z,2.10
2023-05-19T07:01:15.491Z,2.10
2023-05-19T07:02:15.570Z,2.10
2023-05-19T07:03:15.521Z,1.97
2023-05-19T07:04:15.498Z,1.96
2023-05-19T07:05:15.426Z,1.96
2023-05-19T07:06:15.461Z,1.98
2023-05-19T07:07:15.372Z,1.95
2023-05-19T07:08:15.388Z,1.94
2023-05-19T07:09:15.364Z,1.88
2023-05-19T07:10:15.388Z,1.80
2023-05-19T07:11:15.353Z,1.66
2023-05-19T07:12:15.385Z,1.74
2023-05-19T07:13:15.338Z,1.75
2023-05-19T07:14:15.315Z,1.72
2023-05-19T07:15:15.292Z,1.72
2023-05-19T07:16:15.354Z,1.75
2023-05-19T07:17:15.793Z,1.76
2023-05-19T07:18:15.311Z,1.75
2023-05-19T07:19:15.348Z,1.73
2023-05-19T07:20:15.224Z,1.73
2023-05-19T07:21:15.234Z,1.73
2023-05-19T07:22:15.257Z,1.65
2023-05-19T07:23:17.233Z,1.61
2023-05-19T07:24:15.188Z,1.63
2023-05-19T07:25:15.224Z,1.69
2023-05-19T07:26:15.178Z,1.71
2023-05-19T07:27:15.176Z,1.70
2023-05-19T07:28:15.162Z,1.67
2023-05-19T07:29:15.132Z,1.67
2023-05-19T07:30:15.149Z,1.72
2023-05-19T07:31:15.178Z,1.71
2023-05-19T07:32:15.328Z,1.72
2023-05-19T07:33:15.227Z,1.77
2023-05-19T07:34:15.190Z,1.77
2023-05-19T07:35:15.202Z,1.71
2023-05-19T07:36:15.251Z,1.67
2023-05-19T07:37:15.237Z,1.62
2023-05-19T07:38:15.276Z,1.62
2023-05-19T07:39:15.368Z,1.60
2023-05-19T07:40:15.276Z,1.52
2023-05-19T07:41:15.330Z,1.50
2023-05-19T07:42:15.305Z,1.50
2023-05-19T07:43:15.314Z,1.53
2023-05-19T07:44:15.337Z,1.54
2023-05-19T07:45:15.346Z,1.56
2023-05-19T07:46:15.405Z,1.49
2023-05-19T07:47:15.414Z,1.39
2023-05-19T07:48:15.466Z,1.38
2023-05-19T07:49:15.394Z,1.41
2023-05-19T07:50:15.411Z,1.40
2023-05-19T07:51:15.418Z,1.37
2023-05-19T07:52:15.411Z,1.40
2023-05-19T07:53:15.510Z,1.41
2023-05-19T07:54:15.491Z,1.40
2023-05-19T07:55:15.510Z,1.40
2023-05-19T07:56:15.493Z,1.31
2023-05-19T07:57:15.523Z,1.26
2023-05-19T07:58:15.515Z,1.25
2023-05-19T07:59:15.541Z,1.27
2023-05-19T08:00:15.575Z,1.19
2023-05-19T08:01:15.602Z,1.20
2023-05-19T08:02:15.644Z,1.20
2023-05-19T08:03:15.804Z,1.18
2023-05-19T08:04:15.846Z,1.19
2023-05-19T08:05:15.656Z,1.16
2023-05-19T08:06:15.662Z,1.11
2023-05-19T08:07:16.037Z,1.12
2023-05-19T08:08:16.566Z,1.11
2023-05-19T08:09:15.673Z,1.06
2023-05-19T08:10:15.685Z,0.98
2023-05-19T08:11:15.690Z,0.89
2023-05-19T08:12:15.721Z,0.81
2023-05-19T08:13:15.718Z,0.82
2023-05-19T08:14:15.740Z,0.81
2023-05-19T08:15:15.828Z,0.81
2023-05-19T08:16:15.818Z,0.83
2023-05-19T08:17:15.799Z,0.81
2023-05-19T08:18:15.810Z,0.79
2023-05-19T08:19:15.960Z,0.79
2023-05-19T08:20:15.895Z,0.81
2023-05-19T08:21:15.918Z,0.80
2023-05-19T08:22:15.964Z,0.83
2023-05-19T08:23:15.986Z,0.82
2023-05-19T08:24:16.018Z,0.82
2023-05-19T08:25:16.023Z,0.81
2023-05-19T08:26:16.145Z,0.83
2023-05-19T08:27:16.105Z,0.82
2023-05-19T08:28:16.118Z,0.85
2023-05-19T08:29:16.165Z,0.84
2023-05-19T08:30:16.185Z,0.70
2023-05-19T08:31:16.261Z,0.70
2023-05-19T08:32:16.211Z,0.71
2023-05-19T08:33:16.281Z,0.73
2023-05-19T08:34:16.312Z,0.73
2023-05-19T08:35:16.374Z,0.72
2023-05-19T08:36:16.307Z,0.71
2023-05-19T08:37:16.346Z,0.71
2023-05-19T08:38:16.363Z,0.72
2023-05-19T08:39:16.407Z,0.70
2023-05-19T08:40:16.375Z,0.72
2023-05-19T08:41:16.389Z,0.73
2023-05-19T08:42:16.466Z,0.71
2023-05-19T08:43:16.434Z,0.68
2023-05-19T08:44:18.829Z,0.69
2023-05-19T08:45:16.635Z,0.67
2023-05-19T08:46:16.734Z,0.68
2023-05-19T08:47:16.646Z,0.70
2023-05-19T08:48:16.713Z,0.71
2023-05-19T08:49:16.708Z,0.67
2023-05-19T08:50:16.681Z,0.72
2023-05-19T08:51:16.701Z,0.74
2023-05-19T08:52:16.739Z,0.74
2023-05-19T08:53:31.823Z,0.77
2023-05-19T08:54:17.729Z,0.77
2023-05-19T08:55:16.725Z,0.74
2023-05-19T08:56:16.705Z,0.71
2023-05-19T08:57:16.696Z,0.74
2023-05-19T08:58:16.772Z,0.76
2023-05-19T08:59:16.653Z,0.78
2023-05-19T09:00:16.630Z,0.81
2023-05-19T09:01:16.752Z,0.81
2023-05-19T09:02:16.602Z,0.82
2023-05-19T09:04:16.693Z,0.79
2023-05-19T09:05:16.602Z,0.78
2023-05-19T09:06:16.575Z,0.82
2023-05-19T09:07:16.534Z,0.81
2023-05-19T09:08:16.595Z,0.74
2023-05-19T09:09:16.531Z,0.71
2023-05-19T09:10:16.503Z,0.73
2023-05-19T09:11:16.509Z,0.76
2023-05-19T09:12:16.484Z,0.79
2023-05-19T09:13:16.511Z,0.77
2023-05-19T09:14:16.479Z,0.81
2023-05-19T09:15:16.492Z,0.82
2023-05-19T09:16:16.535Z,0.66
2023-05-19T09:17:16.517Z,0.58
2023-05-19T09:18:16.445Z,0.62
2023-05-19T09:19:16.553Z,0.65
2023-05-19T09:20:16.460Z,0.62
2023-05-19T09:21:16.478Z,0.57
2023-05-19T09:22:16.525Z,0.60
2023-05-19T09:23:16.850Z,0.63
2023-05-19T09:24:16.564Z,0.66
2023-05-19T09:25:16.557Z,0.69
2023-05-19T09:26:16.585Z,0.72
2023-05-19T09:27:16.620Z,0.66
2023-05-19T09:28:16.659Z,0.65
2023-05-19T09:29:16.680Z,0.66
2023-05-19T09:30:16.709Z,0.66
2023-05-19T09:31:16.749Z,0.68
2023-05-19T09:32:16.796Z,0.71
2023-05-19T09:33:16.857Z,0.73
2023-05-19T09:34:16.816Z,0.70
2023-05-19T09:35:16.844Z,0.64
2023-05-19T09:36:16.822Z,0.55
2023-05-19T09:37:16.858Z,0.55
2023-05-19T09:38:16.909Z,0.57
2023-05-19T09:39:16.901Z,0.58
2023-05-19T09:40:16.916Z,0.55
2023-05-19T09:41:16.932Z,0.58
2023-05-19T09:42:16.928Z,0.52
2023-05-19T09:43:16.994Z,0.48
2023-05-19T09:44:16.962Z,0.51
2023-05-19T09:45:17.020Z,0.53
2023-05-19T09:46:17.042Z,0.52
2023-05-19T09:47:17.029Z,0.49
2023-05-19T09:48:17.011Z,0.51
2023-05-19T09:49:17.003Z,0.53
2023-05-19T09:50:17.057Z,0.62
2023-05-19T09:51:17.022Z,0.58
2023-05-19T09:52:17.102Z,0.62
2023-05-19T09:53:17.073Z,0.71
2023-05-19T09:54:17.064Z,0.61
2023-05-19T09:55:17.114Z,0.51
2023-05-19T09:56:17.124Z,0.51
2023-05-19T09:57:17.133Z,0.52
2023-05-19T09:58:17.154Z,0.58
2023-05-19T09:59:17.187Z,0.63
2023-05-19T10:00:17.211Z,0.69
2023-05-19T10:01:17.316Z,0.73
2023-05-19T10:02:17.265Z,0.77
2023-05-19T10:03:17.277Z,0.77
2023-05-19T10:04:17.277Z,0.80
2023-05-19T10:05:17.656Z,0.69
2023-05-19T10:06:17.320Z,0.52
2023-05-19T10:07:17.341Z,0.52
2023-05-19T10:08:17.347Z,0.51
2023-05-19T10:09:17.372Z,0.56
2023-05-19T10:10:17.523Z,0.61
2023-05-19T10:11:17.397Z,0.67
2023-05-19T10:12:17.473Z,0.73
2023-05-19T10:13:17.446Z,0.81
2023-05-19T10:14:17.461Z,0.86
2023-05-19T10:15:17.454Z,0.87
2023-05-19T10:16:17.495Z,0.88
2023-05-19T10:17:17.472Z,0.87
2023-05-19T10:18:17.515Z,0.84
2023-05-19T10:19:17.524Z,0.84
2023-05-19T10:20:17.526Z,0.85
2023-05-19T10:21:17.632Z,0.90
2023-05-19T10:22:17.631Z,0.91
2023-05-19T10:23:17.626Z,0.93
2023-05-19T10:24:17.633Z,0.91
2023-05-19T10:25:17.660Z,0.92
2023-05-19T10:26:17.680Z,0.93
2023-05-19T10:27:17.693Z,0.88
2023-05-19T10:28:17.700Z,0.79
2023-05-19T10:29:17.708Z,0.90
2023-05-19T10:30:17.791Z,0.93
2023-05-19T10:31:17.740Z,0.91
2023-05-19T10:32:17.804Z,0.92
2023-05-19T10:33:17.848Z,0.95
2023-05-19T10:34:17.793Z,0.91
2023-05-19T10:35:17.842Z,0.85
2023-05-19T10:36:17.841Z,0.84
2023-05-19T10:37:17.852Z,0.88
2023-05-19T10:38:17.868Z,0.94
2023-05-19T10:39:17.885Z,0.92
2023-05-19T10:40:17.867Z,0.91
2023-05-19T10:41:17.877Z,0.87
2023-05-19T10:42:17.921Z,0.92
2023-05-19T10:43:17.916Z,0.98
2023-05-19T10:44:17.906Z,0.99
2023-05-19T10:45:17.945Z,1.03
2023-05-19T10:46:17.967Z,1.08
2023-05-19T10:47:18.019Z,1.15
2023-05-19T10:48:17.966Z,1.21
2023-05-19T10:49:18.003Z,1.23
2023-05-19T10:50:18.059Z,1.24
2023-05-19T10:51:18.014Z,1.15
2023-05-19T10:52:18.024Z,1.09
2023-05-19T10:53:18.066Z,1.09
2023-05-19T10:54:18.034Z,1.06
2023-05-19T10:55:18.077Z,1.13
2023-05-19T10:56:18.079Z,1.20
2023-05-19T10:57:18.089Z,1.26
2023-05-19T10:58:18.094Z,1.32
2023-05-19T10:59:18.096Z,1.35
2023-05-19T11:00:18.128Z,1.31
2023-05-19T11:01:18.208Z,1.27
2023-05-19T11:02:18.184Z,1.25
2023-05-19T11:03:18.099Z,1.13
2023-05-19T11:04:18.130Z,1.07
2023-05-19T11:05:18.105Z,1.06
2023-05-19T11:06:18.119Z,1.07
2023-05-19T11:07:18.161Z,1.12
2023-05-19T11:08:18.211Z,1.14
2023-05-19T11:09:19.536Z,1.20
2023-05-19T11:10:18.154Z,1.14
2023-05-19T11:11:18.178Z,1.10
2023-05-19T11:12:18.127Z,1.15
2023-05-19T11:13:18.133Z,1.13
2023-05-19T11:14:18.103Z,1.14
2023-05-19T11:15:18.126Z,1.19
2023-05-19T11:16:18.183Z,1.17
2023-05-19T11:17:18.096Z,1.19
2023-05-19T11:18:18.101Z,1.25
2023-05-19T11:19:18.105Z,1.33
2023-05-19T11:20:18.064Z,1.21
2023-05-19T11:21:18.089Z,1.16
2023-05-19T11:22:18.064Z,1.15
2023-05-19T11:23:18.139Z,1.11
2023-05-19T11:24:18.001Z,1.12
2023-05-19T11:25:18.029Z,1.21
2023-05-19T11:26:17.993Z,1.17
2023-05-19T11:27:18.018Z,1.17
2023-05-19T11:28:18.008Z,1.19
2023-05-19T11:29:18.023Z,1.20
2023-05-19T11:30:17.990Z,1.11
2023-05-19T11:31:17.953Z,1.12
2023-05-19T11:32:18.005Z,1.08
2023-05-19T11:33:17.995Z,1.05
2023-05-19T11:34:17.942Z,1.04
2023-05-19T11:35:17.946Z,1.04
2023-05-19T11:36:17.929Z,1.04
2023-05-19T11:37:17.916Z,1.01
2023-05-19T11:38:17.930Z,0.93
2023-05-19T11:39:17.899Z,0.94
2023-05-19T11:40:17.868Z,0.91
2023-05-19T11:41:19.525Z,0.96
2023-05-19T11:42:17.906Z,0.97
2023-05-19T11:43:17.859Z,0.97
2023-05-19T11:44:17.848Z,0.92
2023-05-19T11:45:17.802Z,0.86
2023-05-19T11:46:17.860Z,0.89
2023-05-19T11:47:17.835Z,0.87
2023-05-19T11:48:17.792Z,0.86
2023-05-19T11:49:17.798Z,0.86
2023-05-19T11:50:17.766Z,0.87
2023-05-19T11:51:17.764Z,0.77
2023-05-19T11:52:17.786Z,0.77
2023-05-19T11:53:17.761Z,0.78
2023-05-19T11:54:17.782Z,0.80
2023-05-19T11:55:17.754Z,0.84
2023-05-19T11:56:17.742Z,0.88
2023-05-19T11:57:17.738Z,0.93
2023-05-19T11:58:17.727Z,0.89
2023-05-19T11:59:17.717Z,0.87
2023-05-19T12:00:17.708Z,0.81
2023-05-19T12:01:17.694Z,0.77
2023-05-19T12:02:17.672Z,0.72
2023-05-19T12:03:17.842Z,0.67
2023-05-19T12:04:17.625Z,0.65
2023-05-19T12:05:17.700Z,0.67
2023-05-19T12:06:17.645Z,0.66
2023-05-19T12:07:17.668Z,0.62
2023-05-19T12:08:17.618Z,0.56
2023-05-19T12:09:17.582Z,0.57
2023-05-19T12:10:17.589Z,0.60
2023-05-19T12:11:18.860Z,0.64
2023-05-19T12:12:17.578Z,0.64
2023-05-19T12:13:17.580Z,0.65
2023-05-19T12:14:17.574Z,0.67
2023-05-19T12:15:17.541Z,0.72
2023-05-19T12:16:17.564Z,0.81
2023-05-19T12:17:17.511Z,0.81
2023-05-19T12:18:17.537Z,0.78
2023-05-19T12:19:17.570Z,0.74
2023-05-19T12:20:17.564Z,0.71
2023-05-19T12:21:17.524Z,0.70
2023-05-19T12:22:17.558Z,0.66
2023-05-19T12:23:17.558Z,0.63
2023-05-19T12:24:17.544Z,0.62
2023-05-19T12:25:17.576Z,0.61
2023-05-19T12:26:17.558Z,0.64
2023-05-19T12:27:17.604Z,0.63
2023-05-19T12:28:17.625Z,0.60
2023-05-19T12:29:17.605Z,0.60
2023-05-19T12:30:17.609Z,0.59
2023-05-19T12:31:17.666Z,0.58
2023-05-19T12:32:17.619Z,0.58
2023-05-19T12:33:17.620Z,0.60
2023-05-19T12:34:17.622Z,0.62
2023-05-19T12:35:17.634Z,0.60
2023-05-19T12:36:17.666Z,0.59
2023-05-19T12:37:17.728Z,0.59
2023-05-19T12:38:17.757Z,0.57
2023-05-19T12:39:19.447Z,0.56
2023-05-19T12:40:17.764Z,0.58
2023-05-19T12:41:17.795Z,0.53
2023-05-19T12:42:17.782Z,0.55
2023-05-19T12:43:17.799Z,0.57
2023-05-19T12:44:17.814Z,0.59
2023-05-19T12:45:17.861Z,0.57
2023-05-19T12:46:17.988Z,0.55
2023-05-19T12:47:17.853Z,0.54
2023-05-19T12:48:17.892Z,0.52
2023-05-19T12:49:17.864Z,0.50
2023-05-19T12:50:17.845Z,0.50
2023-05-19T12:51:17.864Z,0.50
2023-05-19T12:52:17.860Z,0.52
2023-05-19T12:53:17.861Z,0.50
2023-05-19T12:54:17.917Z,0.51
2023-05-19T12:55:17.833Z,0.51
2023-05-19T12:56:17.831Z,0.54
2023-05-19T12:57:17.885Z,0.51
2023-05-19T12:58:17.864Z,0.52
2023-05-19T12:59:26.982Z,0.52
2023-05-19T13:00:18.841Z,0.51
2023-05-19T13:01:18.015Z,0.50
2023-05-19T13:02:17.842Z,0.46
2023-05-19T13:03:17.929Z,0.46
2023-05-19T13:04:17.908Z,0.49
2023-05-19T13:05:17.812Z,0.50
2023-05-19T13:06:17.794Z,0.50
2023-05-19T13:07:17.820Z,0.50
2023-05-19T13:08:17.773Z,0.50
2023-05-19T13:09:17.781Z,0.52
2023-05-19T13:10:17.752Z,0.53
2023-05-19T13:11:17.764Z,0.55
2023-05-19T13:12:17.789Z,0.58
2023-05-19T13:13:17.778Z,0.55
2023-05-19T13:14:17.751Z,0.60
2023-05-19T13:15:17.734Z,0.61
2023-05-19T13:16:17.812Z,0.58
2023-05-19T13:17:17.705Z,0.59
2023-05-19T13:18:17.755Z,0.61
2023-05-19T13:19:24.943Z,0.64